createdAt,value
2022-11-29T00:00:10.016Z,101500.00
2022-11-29T00:00:41.950Z,101498.41
2022-11-29T00:01:16.646Z,101503.16
2022-11-29T00:01:51.000Z,101502.81
2022-11-29T00:02:25.181Z,101507.00
2022-11-29T00:02:59.084Z,101502.03
2022-11-29T00:03:33.121Z,101501.56
2022-11-29T00:04:05.392Z,101510.16
2022-11-29T00:04:37.492Z,101497.63
2022-11-29T00:05:11.874Z,101502.38
2022-11-29T00:05:45.199Z,101503.50
2022-11-29T00:06:29.956Z,101500.31
2022-11-29T00:07:01.851Z,101507.34
2022-11-29T00:07:34.789Z,101506.22
2022-11-29T00:08:06.539Z,101496.03
2022-11-29T00:08:38.986Z,101509.28
2022-11-29T00:09:12.978Z,101503.72
2022-11-29T00:09:44.792Z,101508.47
2022-11-29T00:10:16.343Z,101506.88
2022-11-29T00:10:50.928Z,101501.00
2022-11-29T00:11:46.907Z,101508.13
2022-11-29T00:12:20.630Z,101511.66
2022-11-29T00:12:52.274Z,101505.41
2022-11-29T00:13:27.953Z,101506.56
2022-11-29T00:13:59.561Z,101505.75
2022-11-29T00:14:31.303Z,101503.03
2022-11-29T00:15:05.972Z,101509.16
2022-11-29T00:15:39.316Z,101510.41
2022-11-29T00:16:13.435Z,101510.84
2022-11-29T00:16:52.939Z,101509.16
2022-11-29T00:17:24.804Z,101506.09
2022-11-29T00:17:59.368Z,101507.00
2022-11-29T00:18:34.029Z,101510.06
2022-11-29T00:19:10.652Z,101510.75
2022-11-29T00:19:45.522Z,101517.88
2022-11-29T00:20:17.215Z,101517.75
2022-11-29T00:20:48.774Z,101510.84
2022-11-29T00:21:23.299Z,101517.41
2022-11-29T00:21:54.906Z,101518.56
2022-11-29T00:22:26.521Z,101514.25
2022-11-29T00:23:00.034Z,101506.44
2022-11-29T00:23:35.184Z,101507.56
2022-11-29T00:24:07.533Z,101516.28
2022-11-29T00:24:39.581Z,101513.91
2022-11-29T00:25:16.649Z,101517.75
2022-11-29T00:25:48.420Z,101509.94
2022-11-29T00:26:22.488Z,101519.78
2022-11-29T00:26:54.041Z,101510.75
2022-11-29T00:27:27.823Z,101504.53
2022-11-29T00:28:00.513Z,101508.81
2022-11-29T00:28:32.240Z,101518.22
2022-11-29T00:29:04.268Z,101512.31
2022-11-29T00:29:35.899Z,101515.50
2022-11-29T00:30:07.995Z,101517.53
2022-11-29T00:30:41.987Z,101505.75
2022-11-29T00:31:37.076Z,101515.50
2022-11-29T00:32:08.466Z,101522.97
2022-11-29T00:32:40.138Z,101520.59
2022-11-29T00:33:11.712Z,101515.50
2022-11-29T00:33:43.346Z,101513.91
2022-11-29T00:34:17.721Z,101514.69
2022-11-29T00:34:49.491Z,101518.22
2022-11-29T00:35:21.275Z,101518.22
2022-11-29T00:35:52.697Z,101516.16
2022-11-29T00:36:27.292Z,101512.78
2022-11-29T00:36:58.927Z,101517.31
2022-11-29T00:37:31.172Z,101518.56
2022-11-29T00:38:02.577Z,101519.34
2022-11-29T00:38:34.049Z,101520.47
2022-11-29T00:39:11.964Z,101521.72
2022-11-29T00:39:43.793Z,101513.91
2022-11-29T00:40:15.497Z,101519.78
2022-11-29T00:40:53.740Z,101517.41
2022-11-29T00:42:15.523Z,101531.09
2022-11-29T00:42:46.967Z,101527.16
2022-11-29T00:43:18.600Z,101529.97
2022-11-29T00:43:50.350Z,101520.94
2022-11-29T00:44:24.183Z,101519.78
2022-11-29T00:44:55.680Z,101525.69
2022-11-29T00:45:27.145Z,101524.44
2022-11-29T00:45:58.804Z,101520.59
2022-11-29T00:46:30.573Z,101521.72
2022-11-29T00:47:04.797Z,101523.31
2022-11-29T00:47:36.396Z,101517.41
2022-11-29T00:48:08.308Z,101515.50
2022-11-29T00:48:44.229Z,101521.81
2022-11-29T00:49:15.855Z,101519.78
2022-11-29T00:49:47.457Z,101513.91
2022-11-29T00:50:19.133Z,101510.06
2022-11-29T00:50:51.012Z,101523.31
2022-11-29T00:51:22.588Z,101520.13
2022-11-29T00:51:58.647Z,101515.50
2022-11-29T00:52:30.508Z,101513.91
2022-11-29T00:53:02.123Z,101511.97
2022-11-29T00:53:37.767Z,101516.28
2022-11-29T00:54:09.434Z,101518.66
2022-11-29T00:54:41.568Z,101517.06
2022-11-29T00:55:13.472Z,101509.59
2022-11-29T00:55:47.553Z,101517.06
2022-11-29T00:56:19.127Z,101511.31
2022-11-29T00:56:53.472Z,101515.94
2022-11-29T00:57:24.920Z,101512.88
2022-11-29T00:57:56.400Z,101516.41
2022-11-29T00:58:28.343Z,101514.81
2022-11-29T00:58:59.745Z,101515.25
2022-11-29T00:59:31.379Z,101514.81
2022-11-29T01:00:04.775Z,101509.38
2022-11-29T01:00:36.299Z,101517.25
2022-11-29T01:01:10.664Z,101516.81
2022-11-29T01:01:45.433Z,101518.84
2022-11-29T01:02:17.126Z,101511.03
2022-11-29T01:02:51.300Z,101522.69
2022-11-29T01:03:25.596Z,101517.59
2022-11-29T01:03:57.504Z,101516.47
2022-11-29T01:04:29.014Z,101518.78
2022-11-29T01:05:00.668Z,101516.81
2022-11-29T01:05:34.551Z,101514.81
2022-11-29T01:06:11.462Z,101518.41
2022-11-29T01:06:43.175Z,101517.97
2022-11-29T01:07:14.603Z,101515.94
2022-11-29T01:07:46.339Z,101519.91
2022-11-29T01:08:19.359Z,101517.06
2022-11-29T01:08:50.856Z,101524.19
2022-11-29T01:09:22.644Z,101517.41
2022-11-29T01:09:57.260Z,101513.91
2022-11-29T01:10:29.141Z,101524.09
2022-11-29T01:11:08.311Z,101518.56
2022-11-29T01:11:39.830Z,101519.00
2022-11-29T01:12:15.644Z,101520.47
2022-11-29T01:12:48.983Z,101520.94
2022-11-29T01:13:23.026Z,101531.44
2022-11-29T01:13:58.443Z,101524.78
2022-11-29T01:14:32.286Z,101530.22
2022-11-29T01:15:05.561Z,101525.22
2022-11-29T01:15:37.702Z,101528.38
2022-11-29T01:16:10.180Z,101529.53
2022-11-29T01:16:41.771Z,101531.44
2022-11-29T01:17:13.472Z,101520.47
2022-11-29T01:17:44.971Z,101525.56
2022-11-29T01:18:16.675Z,101529.06
2022-11-29T01:18:48.241Z,101529.88
2022-11-29T01:19:19.697Z,101533.72
2022-11-29T01:19:54.184Z,101529.88
2022-11-29T01:20:26.333Z,101526.69
2022-11-29T01:21:03.794Z,101527.94
2022-11-29T01:21:35.485Z,101529.06
2022-11-29T01:22:09.129Z,101529.88
2022-11-29T01:22:43.542Z,101529.53
2022-11-29T01:23:17.262Z,101529.53
2022-11-29T01:23:51.068Z,101526.34
2022-11-29T01:24:24.973Z,101533.38
2022-11-29T01:25:00.280Z,101530.75
2022-11-29T01:25:32.139Z,101527.50
2022-11-29T01:26:09.140Z,101529.41
2022-11-29T01:26:43.555Z,101533.03
2022-11-29T01:27:17.705Z,101530.66
2022-11-29T01:27:49.232Z,101536.19
2022-11-29T01:28:20.823Z,101534.16
2022-11-29T01:28:54.369Z,101530.66
2022-11-29T01:29:26.084Z,101533.38
2022-11-29T01:29:57.888Z,101533.38
2022-11-29T01:30:29.650Z,101538.47
2022-11-29T01:31:13.205Z,101543.56
2022-11-29T01:31:44.940Z,101537.00
2022-11-29T01:32:16.431Z,101537.66
2022-11-29T01:32:48.088Z,101532.69
2022-11-29T01:33:20.142Z,101537.66
2022-11-29T01:33:56.362Z,101541.25
2022-11-29T01:34:28.325Z,101542.44
2022-11-29T01:34:59.990Z,101537.78
2022-11-29T01:35:33.657Z,101538.13
2022-11-29T01:36:07.399Z,101538.53
2022-11-29T01:36:39.010Z,101539.34
2022-11-29T01:37:10.512Z,101544.34
2022-11-29T01:37:42.286Z,101544.78
2022-11-29T01:38:17.803Z,101539.34
2022-11-29T01:38:49.691Z,101545.13
2022-11-29T01:39:21.626Z,101541.25
2022-11-29T01:39:56.155Z,101550.66
2022-11-29T01:40:27.633Z,101549.06
2022-11-29T01:41:12.774Z,101549.53
2022-11-29T01:41:44.232Z,101544.34
2022-11-29T01:43:18.063Z,101545.56
2022-11-29T01:44:00.292Z,101547.47
2022-11-29T01:44:31.650Z,101546.69
2022-11-29T01:45:19.015Z,101556.78
2022-11-29T01:45:50.911Z,101549.78
2022-11-29T01:46:22.510Z,101547.41
2022-11-29T01:46:54.893Z,101545.47
2022-11-29T01:47:29.861Z,101551.25
2022-11-29T01:48:01.764Z,101540.84
2022-11-29T01:48:33.581Z,101549.78
2022-11-29T01:49:10.871Z,101558.34
2022-11-29T01:49:45.544Z,101550.13
2022-11-29T01:50:17.393Z,101549.41
2022-11-29T01:50:49.236Z,101549.00
2022-11-29T01:51:21.753Z,101553.28
2022-11-29T01:51:59.561Z,101555.22
2022-11-29T01:52:33.497Z,101544.34
2022-11-29T01:53:05.943Z,101559.16
2022-11-29T01:53:38.381Z,101551.72
2022-11-29T01:54:12.152Z,101555.22
2022-11-29T01:54:49.741Z,101553.72
2022-11-29T01:55:21.772Z,101556.00
2022-11-29T01:56:01.185Z,101552.50
2022-11-29T01:56:37.016Z,101553.63
2022-11-29T01:57:10.351Z,101546.94
2022-11-29T01:57:43.761Z,101563.78
2022-11-29T01:58:15.386Z,101555.22
2022-11-29T01:58:50.519Z,101558.34
2022-11-29T01:59:26.937Z,101552.84
2022-11-29T02:00:06.559Z,101554.75
2022-11-29T02:00:40.922Z,101555.09
2022-11-29T02:01:13.931Z,101559.50
2022-11-29T02:01:45.513Z,101549.66
2022-11-29T02:02:28.641Z,101552.84
2022-11-29T02:03:07.919Z,101552.72
2022-11-29T02:03:39.857Z,101553.19
2022-11-29T02:04:12.257Z,101564.50
2022-11-29T02:04:48.739Z,101555.91
2022-11-29T02:05:21.532Z,101559.06
2022-11-29T02:05:56.342Z,101562.22
2022-11-29T02:06:30.617Z,101561.78
2022-11-29T02:07:03.157Z,101568.78
2022-11-29T02:07:35.578Z,101568.44
2022-11-29T02:08:09.717Z,101564.03
2022-11-29T02:08:43.299Z,101570.38
2022-11-29T02:09:19.728Z,101558.28
2022-11-29T02:09:55.304Z,101564.84
2022-11-29T02:11:05.239Z,101559.41
2022-11-29T02:11:57.212Z,101564.16
2022-11-29T02:12:49.835Z,101563.38
2022-11-29T02:13:33.571Z,101566.88
2022-11-29T02:14:25.892Z,101564.50
2022-11-29T02:15:17.780Z,101562.91
2022-11-29T02:16:05.379Z,101561.31
2022-11-29T02:16:58.548Z,101565.63
2022-11-29T02:17:48.433Z,101564.84
2022-11-29T02:18:30.606Z,101564.03
2022-11-29T02:19:33.747Z,101558.94
2022-11-29T02:20:38.182Z,101562.78
2022-11-29T02:21:53.074Z,101562.00
2022-11-29T02:22:33.030Z,101564.72
2022-11-29T02:23:39.417Z,101559.63
2022-11-29T02:24:48.455Z,101566.66
2022-11-29T02:25:56.744Z,101568.91
2022-11-29T02:26:56.281Z,101570.81
2022-11-29T02:27:36.333Z,101564.59
2022-11-29T02:28:36.382Z,101564.59
2022-11-29T02:29:38.847Z,101561.88
2022-11-29T02:30:50.983Z,101568.00
2022-11-29T02:31:59.559Z,101567.66
2022-11-29T02:33:17.379Z,101570.72
2022-11-29T02:34:07.041Z,101569.91
2022-11-29T02:34:50.498Z,101571.84
2022-11-29T02:35:48.018Z,101574.56
2022-11-29T02:36:59.172Z,101576.47
2022-11-29T02:37:30.645Z,101579.53
2022-11-29T02:38:08.178Z,101579.53
2022-11-29T02:39:03.012Z,101570.25
2022-11-29T02:39:59.085Z,101575.25
2022-11-29T02:40:48.674Z,101574.44
2022-11-29T02:41:41.557Z,101574.81
2022-11-29T02:42:54.089Z,101577.88
2022-11-29T02:43:42.467Z,101578.66
2022-11-29T02:44:55.798Z,101568.59
2022-11-29T02:46:03.763Z,101573.22
2022-11-29T02:46:57.142Z,101575.94
2022-11-29T02:48:08.075Z,101572.44
2022-11-29T02:48:55.545Z,101584.44
2022-11-29T02:49:50.441Z,101580.13
2022-11-29T02:51:15.753Z,101583.63
2022-11-29T02:52:02.985Z,101584.75
2022-11-29T02:53:06.401Z,101582.84
2022-11-29T02:53:48.179Z,101587.81
2022-11-29T02:54:51.068Z,101585.56
2022-11-29T02:55:38.138Z,101583.97
2022-11-29T02:56:29.314Z,101584.75
2022-11-29T02:57:24.203Z,101584.75
2022-11-29T02:58:23.775Z,101587.47
2022-11-29T02:59:25.222Z,101589.41
2022-11-29T03:00:03.925Z,101595.63
2022-11-29T03:00:43.803Z,101596.41
2022-11-29T03:01:44.882Z,101601.06
2022-11-29T03:02:19.006Z,101602.66
2022-11-29T03:03:03.263Z,101597.53
2022-11-29T03:03:49.726Z,101606.50
2022-11-29T03:04:33.022Z,101598.69
2022-11-29T03:05:17.266Z,101601.06
2022-11-29T03:06:03.185Z,101603.78
2022-11-29T03:07:02.950Z,101603.78
2022-11-29T03:07:58.722Z,101600.25
2022-11-29T03:08:47.015Z,101604.09
2022-11-29T03:09:32.218Z,101602.97
2022-11-29T03:10:08.972Z,101602.53
2022-11-29T03:10:59.379Z,101605.56
2022-11-29T03:11:52.998Z,101602.06
2022-11-29T03:12:46.310Z,101604.44
2022-11-29T03:13:29.506Z,101596.63
2022-11-29T03:14:17.084Z,101605.56
2022-11-29T03:15:02.439Z,101600.47
2022-11-29T03:15:39.405Z,101600.94
2022-11-29T03:16:29.658Z,101603.66
2022-11-29T03:17:16.631Z,101596.19
2022-11-29T03:18:03.573Z,101604.00
2022-11-29T03:18:59.993Z,101596.97
2022-11-29T03:19:49.122Z,101603.19
2022-11-29T03:20:35.286Z,101598.09
2022-11-29T03:21:35.235Z,101608.63
2022-11-29T03:22:15.066Z,101607.03
2022-11-29T03:23:09.900Z,101605.56
2022-11-29T03:23:48.046Z,101611.34
2022-11-29T03:24:27.907Z,101601.63
2022-11-29T03:25:08.411Z,101604.78
2022-11-29T03:25:44.419Z,101608.63
2022-11-29T03:26:32.516Z,101612.94
2022-11-29T03:27:11.529Z,101608.28
2022-11-29T03:28:04.171Z,101613.25
2022-11-29T03:28:45.967Z,101606.91
2022-11-29T03:29:29.494Z,101610.09
2022-11-29T03:30:05.021Z,101616.66
2022-11-29T03:30:40.527Z,101618.56
2022-11-29T03:31:29.958Z,101612.69
2022-11-29T03:32:20.205Z,101615.84
2022-11-29T03:33:03.727Z,101623.22
2022-11-29T03:33:56.849Z,101624.34
2022-11-29T03:34:37.434Z,101621.53
2022-11-29T03:35:20.338Z,101615.31
2022-11-29T03:36:09.206Z,101617.56
2022-11-29T03:37:03.614Z,101625.72
2022-11-29T03:37:55.526Z,101624.91
2022-11-29T03:38:40.705Z,101623.34
2022-11-29T03:39:20.852Z,101630.00
2022-11-29T03:39:59.696Z,101620.75
2022-11-29T03:40:45.395Z,101626.59
2022-11-29T03:41:39.283Z,101630.91
2022-11-29T03:42:30.928Z,101625.13
2022-11-29T03:43:08.963Z,101627.06
2022-11-29T03:43:46.917Z,101626.25
2022-11-29T03:44:31.735Z,101630.22
2022-11-29T03:45:09.096Z,101624.00
2022-11-29T03:45:51.808Z,101627.50
2022-11-29T03:46:32.108Z,101625.59
2022-11-29T03:47:09.917Z,101626.84
2022-11-29T03:48:09.967Z,101628.75
2022-11-29T03:48:48.811Z,101632.28
2022-11-29T03:49:45.294Z,101626.72
2022-11-29T03:50:23.053Z,101633.72
2022-11-29T03:51:02.925Z,101638.72
2022-11-29T03:51:49.585Z,101632.94
2022-11-29T03:52:33.831Z,101634.88
2022-11-29T03:53:13.122Z,101634.88
2022-11-29T03:54:03.779Z,101637.13
2022-11-29T03:54:51.630Z,101637.47
2022-11-29T03:55:54.507Z,101642.88
2022-11-29T03:56:35.770Z,101643.25
2022-11-29T03:57:07.378Z,101642.00
2022-11-29T03:57:50.713Z,101632.59
2022-11-29T03:58:46.574Z,101640.41
2022-11-29T03:59:39.272Z,101645.38
2022-11-29T04:00:13.295Z,101646.97
2022-11-29T04:00:47.404Z,101641.53
2022-11-29T04:01:21.647Z,101647.75
2022-11-29T04:02:26.971Z,101643.13
2022-11-29T04:03:17.018Z,101641.88
2022-11-29T04:04:06.568Z,101641.41
2022-11-29T04:05:11.806Z,101641.41
2022-11-29T04:06:13.841Z,101646.84
2022-11-29T04:07:16.231Z,101655.00
2022-11-29T04:07:57.434Z,101658.50
2022-11-29T04:09:05.770Z,101652.94
2022-11-29T04:10:12.207Z,101655.66
2022-11-29T04:11:03.873Z,101656.78
2022-11-29T04:12:03.986Z,101656.78
2022-11-29T04:13:06.743Z,101659.84
2022-11-29T04:14:03.126Z,101655.19
2022-11-29T04:14:43.643Z,101658.25
2022-11-29T04:15:48.983Z,101658.59
2022-11-29T04:16:41.645Z,101657.00
2022-11-29T04:17:50.611Z,101657.78
2022-11-29T04:18:33.902Z,101658.13
2022-11-29T04:19:25.676Z,101657.78
2022-11-29T04:20:47.806Z,101653.94
2022-11-29T04:21:37.870Z,101656.66
2022-11-29T04:22:31.061Z,101660.97
2022-11-29T04:23:39.499Z,101655.53
2022-11-29T04:24:35.146Z,101660.16
2022-11-29T04:25:28.908Z,101662.88
2022-11-29T04:26:19.143Z,101665.94
2022-11-29T04:26:56.770Z,101662.88
2022-11-29T04:27:58.805Z,101664.00
2022-11-29T04:28:57.575Z,101668.66
2022-11-29T04:29:43.638Z,101666.72
2022-11-29T04:30:24.901Z,101669.44
2022-11-29T04:31:32.851Z,101671.03
2022-11-29T04:32:39.661Z,101663.66
2022-11-29T04:33:27.660Z,101668.31
2022-11-29T04:33:58.935Z,101669.09
2022-11-29T04:34:51.983Z,101661.28
2022-11-29T04:37:05.881Z,101662.78
2022-11-29T04:38:14.682Z,101662.31
2022-11-29T04:38:53.351Z,101668.88
2022-11-29T04:39:40.020Z,101664.59
2022-11-29T04:40:43.047Z,101660.59
2022-11-29T04:41:20.344Z,101667.63
2022-11-29T04:42:00.850Z,101670.34
2022-11-29T04:42:42.821Z,101670.66
2022-11-29T04:43:35.890Z,101674.97
2022-11-29T04:44:50.566Z,101679.59
2022-11-29T04:45:53.842Z,101670.66
2022-11-29T04:46:36.636Z,101676.09
2022-11-29T04:47:21.976Z,101677.69
2022-11-29T04:48:39.831Z,101680.41
2022-11-29T04:49:45.927Z,101672.25
2022-11-29T04:50:27.099Z,101676.91
2022-11-29T04:51:01.150Z,101669.53
2022-11-29T04:51:50.003Z,101682.00
2022-11-29T04:52:47.753Z,101679.28
2022-11-29T04:53:31.243Z,101678.16
2022-11-29T04:54:13.107Z,101681.66
2022-11-29T04:54:57.115Z,101680.84
2022-11-29T04:55:31.386Z,101682.44
2022-11-29T04:56:21.430Z,101687.09
2022-11-29T04:57:01.725Z,101678.16
2022-11-29T04:57:43.190Z,101684.38
2022-11-29T04:58:24.260Z,101687.88
2022-11-29T04:59:06.129Z,101678.16
2022-11-29T04:59:46.668Z,101687.88
2022-11-29T05:00:21.611Z,101681.66
2022-11-29T05:01:03.966Z,101682.78
2022-11-29T05:01:50.273Z,101681.19
2022-11-29T05:02:43.598Z,101690.13
2022-11-29T05:03:30.103Z,101688.06
2022-11-29T05:04:20.056Z,101694.75
2022-11-29T05:05:33.406Z,101690.13
2022-11-29T05:06:16.706Z,101688.22
2022-11-29T05:07:23.307Z,101689.00
2022-11-29T05:08:07.629Z,101691.72
2022-11-29T05:09:03.318Z,101694.44
2022-11-29T05:10:00.430Z,101700.66
2022-11-29T05:10:56.244Z,101698.72
2022-11-29T05:12:05.024Z,101700.66
2022-11-29T05:12:52.246Z,101705.28
2022-11-29T05:13:30.445Z,101700.66
2022-11-29T05:14:16.621Z,101698.72
2022-11-29T05:15:02.350Z,101707.34
2022-11-29T05:16:11.657Z,101711.16
2022-11-29T05:16:47.898Z,101705.28
2022-11-29T05:17:46.542Z,101708.34
2022-11-29T05:18:49.354Z,101710.25
2022-11-29T05:19:49.170Z,101714.09
2022-11-29T05:20:34.396Z,101718.38
2022-11-29T05:21:27.725Z,101714.88
2022-11-29T05:22:02.259Z,101711.84
2022-11-29T05:22:46.007Z,101713.44
2022-11-29T05:23:54.785Z,101711.03
2022-11-29T05:24:45.004Z,101719.66
2022-11-29T05:25:39.870Z,101718.84
2022-11-29T05:26:29.882Z,101716.94
2022-11-29T05:27:27.007Z,101718.84
2022-11-29T05:28:13.366Z,101718.84
2022-11-29T05:28:58.589Z,101718.84
2022-11-29T05:29:41.871Z,101717.72
2022-11-29T05:30:19.510Z,101722.34
2022-11-29T05:31:02.836Z,101718.38
2022-11-29T05:31:42.933Z,101722.22
2022-11-29T05:32:30.697Z,101721.09
2022-11-29T05:33:13.727Z,101718.38
2022-11-29T05:33:45.056Z,101714.56
2022-11-29T05:34:48.724Z,101721.56
2022-11-29T05:35:40.049Z,101713.44
2022-11-29T05:36:17.306Z,101725.88
2022-11-29T05:37:31.366Z,101729.38
2022-11-29T05:38:23.897Z,101724.75
2022-11-29T05:39:31.194Z,101730.16
2022-11-29T05:40:32.181Z,101730.16
2022-11-29T05:41:18.758Z,101726.34
2022-11-29T05:42:23.549Z,101727.47
2022-11-29T05:43:11.572Z,101726.34
2022-11-29T05:44:03.543Z,101730.97
2022-11-29T05:45:19.449Z,101729.03
2022-11-29T05:45:59.170Z,101726.34
2022-11-29T05:46:56.362Z,101728.25
2022-11-29T05:47:40.134Z,101730.16
2022-11-29T05:48:45.183Z,101730.97
2022-11-29T05:49:44.633Z,101734.81
2022-11-29T05:50:26.510Z,101731.28
2022-11-29T05:51:19.779Z,101734.00
2022-11-29T05:52:12.610Z,101739.44
2022-11-29T05:52:55.413Z,101739.78
2022-11-29T05:53:38.411Z,101739.44
2022-11-29T05:54:42.149Z,101744.88
2022-11-29T05:55:13.654Z,101748.69
2022-11-29T05:56:03.002Z,101744.41
2022-11-29T05:56:55.434Z,101753.78
2022-11-29T05:58:01.739Z,101746.44
2022-11-29T05:58:47.674Z,101756.19
2022-11-29T05:59:23.201Z,101756.50
2022-11-29T05:59:57.316Z,101754.94
2022-11-29T06:00:52.836Z,101750.16
2022-11-29T06:01:43.521Z,101753.66
2022-11-29T06:02:29.208Z,101750.94
2022-11-29T06:03:24.650Z,101756.38
2022-11-29T06:04:04.111Z,101752.53
2022-11-29T06:04:48.121Z,101761.81
2022-11-29T06:05:49.728Z,101764.97
2022-11-29T06:06:30.554Z,101761.47
2022-11-29T06:07:20.483Z,101760.69
2022-11-29T06:07:56.375Z,101764.97
2022-11-29T06:08:54.746Z,101758.75
2022-11-29T06:09:39.959Z,101767.69
2022-11-29T06:10:26.366Z,101763.41
2022-11-29T06:11:13.966Z,101768.03
2022-11-29T06:11:50.143Z,101762.59
2022-11-29T06:12:23.930Z,101769.16
2022-11-29T06:13:04.049Z,101768.81
2022-11-29T06:13:51.034Z,101760.22
2022-11-29T06:14:22.840Z,101762.59
2022-11-29T06:15:03.367Z,101761.81
2022-11-29T06:15:57.592Z,101765.31
2022-11-29T06:17:09.050Z,101763.72
2022-11-29T06:17:40.623Z,101757.50
2022-11-29T06:18:56.501Z,101765.19
2022-11-29T06:19:59.240Z,101758.50
2022-11-29T06:21:01.876Z,101764.72
2022-11-29T06:21:48.366Z,101769.03
2022-11-29T06:22:45.977Z,101767.44
2022-11-29T06:23:43.555Z,101764.72
2022-11-29T06:24:45.840Z,101766.63
2022-11-29T06:25:37.958Z,101765.38
2022-11-29T06:26:30.599Z,101764.59
2022-11-29T06:27:07.665Z,101765.38
2022-11-29T06:28:07.763Z,101768.88
2022-11-29T06:28:57.531Z,101765.06
2022-11-29T06:29:33.819Z,101765.84
2022-11-29T06:30:12.099Z,101766.63
2022-11-29T06:31:01.045Z,101777.16
2022-11-29T06:31:39.366Z,101777.16
2022-11-29T06:32:18.179Z,101776.38
2022-11-29T06:33:07.923Z,101778.75
2022-11-29T06:33:56.194Z,101778.41
2022-11-29T06:34:40.251Z,101776.03
2022-11-29T06:35:15.119Z,101776.50
2022-11-29T06:35:49.692Z,101780.00
2022-11-29T06:36:28.961Z,101786.56
2022-11-29T06:37:13.813Z,101779.22
2022-11-29T06:37:50.530Z,101782.25
2022-11-29T06:38:28.958Z,101787.34
2022-11-29T06:39:00.611Z,101775.69
2022-11-29T06:39:32.360Z,101782.72
2022-11-29T06:40:05.499Z,101782.72
2022-11-29T06:40:37.154Z,101788.94
2022-11-29T06:41:14.363Z,101780.81
2022-11-29T06:41:47.088Z,101782.41
2022-11-29T06:42:18.706Z,101782.06
2022-11-29T06:42:50.223Z,101781.28
2022-11-29T06:43:21.905Z,101785.09
2022-11-29T06:43:55.792Z,101778.09
2022-11-29T06:44:27.572Z,101783.53
2022-11-29T06:44:59.228Z,101783.53
2022-11-29T06:45:30.956Z,101784.78
2022-11-29T06:46:15.425Z,101791.47
2022-11-29T06:47:05.737Z,101789.88
2022-11-29T06:47:55.152Z,101796.44
2022-11-29T06:48:29.762Z,101796.88
2022-11-29T06:49:16.688Z,101791.78
2022-11-29T06:49:51.707Z,101799.59
2022-11-29T06:50:48.850Z,101798.34
2022-11-29T06:51:30.095Z,101795.63
2022-11-29T06:52:12.634Z,101800.72
2022-11-29T06:53:07.198Z,101804.56
2022-11-29T06:54:04.058Z,101796.44
2022-11-29T06:55:01.154Z,101806.16
2022-11-29T06:55:47.717Z,101802.66
2022-11-29T06:56:29.939Z,101808.88
2022-11-29T06:57:19.882Z,101810.78
2022-11-29T06:57:51.141Z,101808.88
2022-11-29T06:59:02.814Z,101815.41
2022-11-29T06:59:51.267Z,101812.72
2022-11-29T07:00:28.844Z,101818.94
2022-11-29T07:01:06.851Z,101814.63
2022-11-29T07:01:45.792Z,101818.13
2022-11-29T07:02:35.249Z,101820.84
2022-11-29T07:03:25.786Z,101820.06
2022-11-29T07:04:11.990Z,101816.22
2022-11-29T07:04:52.467Z,101817.34
2022-11-29T07:05:27.261Z,101821.66
2022-11-29T07:05:58.760Z,101820.53
2022-11-29T07:06:32.078Z,101814.63
2022-11-29T07:07:03.892Z,101820.84
2022-11-29T07:07:35.684Z,101820.06
2022-11-29T07:08:14.943Z,101822.09
2022-11-29T07:08:48.970Z,101822.44
2022-11-29T07:09:25.631Z,101819.72
2022-11-29T07:10:00.397Z,101826.75
2022-11-29T07:10:34.774Z,101818.13
2022-11-29T07:11:06.638Z,101821.66
2022-11-29T07:11:38.503Z,101824.34
2022-11-29T07:12:10.351Z,101821.97
2022-11-29T07:12:41.973Z,101822.78
2022-11-29T07:13:13.755Z,101822.44
2022-11-29T07:13:45.508Z,101826.28
2022-11-29T07:14:17.213Z,101824.69
2022-11-29T07:14:49.011Z,101826.13
2022-11-29T07:15:22.612Z,101819.91
2022-11-29T07:16:06.734Z,101823.75
2022-11-29T07:16:57.640Z,101826.94
2022-11-29T07:17:59.383Z,101829.97
2022-11-29T07:18:33.834Z,101837.78
2022-11-29T07:19:26.787Z,101835.41
2022-11-29T07:20:12.961Z,101837.31
2022-11-29T07:21:16.002Z,101834.59
2022-11-29T07:22:04.706Z,101840.84
2022-11-29T07:22:47.925Z,101840.84
2022-11-29T07:23:31.335Z,101842.75
2022-11-29T07:24:18.897Z,101847.72
2022-11-29T07:25:15.770Z,101850.09
2022-11-29T07:26:19.022Z,101850.09
2022-11-29T07:26:59.601Z,101850.88
2022-11-29T07:28:02.152Z,101857.44
2022-11-29T07:29:00.486Z,101859.81
2022-11-29T07:30:00.577Z,101853.59
2022-11-29T07:30:47.120Z,101859.03
2022-11-29T07:32:00.533Z,101861.75
2022-11-29T07:33:05.723Z,101856.66
2022-11-29T07:34:03.039Z,101856.66
2022-11-29T07:35:15.292Z,101860.47
2022-11-29T07:36:14.182Z,101859.34
2022-11-29T07:37:14.917Z,101866.38
2022-11-29T07:38:13.906Z,101862.88
2022-11-29T07:38:58.968Z,101858.56
2022-11-29T07:40:01.304Z,101873.41
2022-11-29T07:41:03.837Z,101873.06
2022-11-29T07:41:51.157Z,101869.88
2022-11-29T07:42:43.219Z,101870.69
2022-11-29T07:43:45.326Z,101873.06
2022-11-29T07:44:38.270Z,101867.63
2022-11-29T07:45:23.931Z,101864.13
2022-11-29T07:45:57.024Z,101876.91
2022-11-29T07:46:29.159Z,101873.41
2022-11-29T07:47:00.700Z,101863.34
2022-11-29T07:47:35.788Z,101868.75
2022-11-29T07:48:11.355Z,101881.22
2022-11-29T07:48:42.843Z,101876.56
2022-11-29T07:49:14.407Z,101871.16
2022-11-29T07:49:45.855Z,101876.56
2022-11-29T07:50:17.283Z,101875.78
2022-11-29T07:50:49.050Z,101879.63
2022-11-29T07:51:20.716Z,101881.22
2022-11-29T07:51:54.345Z,101876.91
2022-11-29T07:52:25.914Z,101882.00
2022-11-29T07:52:57.833Z,101880.75
2022-11-29T07:53:30.279Z,101877.69
2022-11-29T07:54:02.035Z,101883.91
2022-11-29T07:54:33.499Z,101879.63
2022-11-29T07:55:05.611Z,101878.03
2022-11-29T07:55:37.274Z,101881.22
2022-11-29T07:56:09.687Z,101883.91
2022-11-29T07:56:41.254Z,101877.69
2022-11-29T07:57:12.776Z,101890.63
2022-11-29T07:57:44.432Z,101885.50
2022-11-29T07:58:19.092Z,101888.22
2022-11-29T07:58:52.017Z,101888.22
2022-11-29T07:59:23.480Z,101885.84
2022-11-29T07:59:57.302Z,101892.53
2022-11-29T08:00:28.915Z,101886.63
2022-11-29T08:01:00.709Z,101891.72
2022-11-29T08:03:38.958Z,101890.47
2022-11-29T08:05:15.378Z,101891.25
2022-11-29T08:07:58.586Z,101885.22
2022-11-29T08:11:17.634Z,101900.84
2022-11-29T08:13:46.574Z,101910.91
2022-11-29T08:14:22.115Z,101904.22
2022-11-29T08:15:06.063Z,101902.31
2022-11-29T08:19:05.903Z,101908.25
2022-11-29T08:20:04.630Z,101910.31
2022-11-29T08:20:54.629Z,101907.44
2022-11-29T08:23:58.038Z,101905.75
2022-11-29T08:25:02.407Z,101917.97
2022-11-29T08:26:08.646Z,101916.38
2022-11-29T08:27:26.742Z,101915.16
2022-11-29T08:28:56.764Z,101911.66
2022-11-29T08:29:53.399Z,101908.13
2022-11-29T08:30:54.926Z,101914.34
2022-11-29T08:35:33.010Z,101907.66